Time;durP1;ratioP1;P1;durP2;ratioP2;P2;SDS_P1;SDS_P2;PMS_P1;PMS_P2;Temp;Humidity;BMP_temperature;BMP_pressure;BME280_temperature;BME280_humidity;BME280_pressure;Samples;Min_cycle;Max_cycle;Signal;HPM_P1;HPM_P2
2023/04/12 00:00:01;;;;;;;2.22;2.03;;;19.10;49.40;;;;;;4972925;28;20256;-70
2023/04/12 00:02:26;;;;;;;2.10;2.00;;;19.10;49.40;;;;;;4972604;28;20212;-70
2023/04/12 00:04:56;;;;;;;1.95;1.73;;;19.10;49.40;;;;;;4956690;28;20212;-70
2023/04/12 00:07:26;;;;;;;1.85;1.50;;;19.10;49.40;;;;;;4973026;28;20304;-70
2023/04/12 00:09:51;;;;;;;1.70;1.60;;;19.10;49.40;;;;;;4972792;28;20225;-70
2023/04/12 00:12:18;;;;;;;1.73;1.50;;;19.10;49.40;;;;;;4972383;28;20206;-70
2023/04/12 00:14:45;;;;;;;2.20;2.00;;;19.10;49.40;;;;;;4956768;28;20264;-70
2023/04/12 00:17:11;;;;;;;1.95;1.70;;;19.00;49.30;;;;;;4956460;28;20193;-70
2023/04/12 00:19:41;;;;;;;1.55;1.45;;;19.00;49.30;;;;;;4956168;28;20240;-70
2023/04/12 00:22:10;;;;;;;2.35;1.75;;;19.00;49.30;;;;;;4965781;28;20209;-70
2023/04/12 00:24:40;;;;;;;1.70;1.60;;;19.00;49.30;;;;;;4973554;28;20280;-70
2023/04/12 00:27:07;;;;;;;2.30;1.67;;;19.10;49.40;;;;;;4973606;28;20197;-70
2023/04/12 00:29:33;;;;;;;2.15;1.70;;;19.10;49.40;;;;;;4972381;28;20225;-70
2023/04/12 00:32:00;;;;;;;1.80;1.70;;;19.00;49.30;;;;;;4972298;28;20206;-70
2023/04/12 00:34:29;;;;;;;1.55;1.45;;;19.00;49.40;;;;;;4972342;28;20193;-70
2023/04/12 00:36:55;;;;;;;2.03;1.85;;;19.10;49.50;;;;;;4973487;28;20197;-70
2023/04/12 00:39:21;;;;;;;2.00;1.80;;;19.00;49.40;;;;;;4972348;28;20735;-70
2023/04/12 00:41:48;;;;;;;2.08;1.88;;;19.00;49.40;;;;;;4973153;28;20209;-70
2023/04/12 00:44:16;;;;;;;1.55;1.45;;;19.00;49.40;;;;;;4972041;28;20276;-70
2023/04/12 00:46:43;;;;;;;1.73;1.40;;;19.10;49.50;;;;;;4972182;28;20198;-70
2023/04/12 00:49:11;;;;;;;2.90;1.80;;;19.00;49.40;;;;;;4972192;28;20222;-70
2023/04/12 00:51:38;;;;;;;1.83;1.48;;;19.00;49.40;;;;;;4955890;28;20315;-70
2023/04/12 00:54:06;;;;;;;2.17;1.58;;;19.10;49.50;;;;;;4972190;28;20190;-71
2023/04/12 00:56:32;;;;;;;1.55;1.45;;;19.00;49.50;;;;;;4956394;28;20201;-70
2023/04/12 00:59:00;;;;;;;1.60;1.50;;;19.00;49.50;;;;;;4971546;28;20213;-70
2023/04/12 01:01:27;;;;;;;1.75;1.50;;;19.00;49.50;;;;;;4971818;28;20252;-70
2023/04/12 01:03:59;;;;;;;1.38;1.27;;;19.00;49.50;;;;;;4972016;28;20194;-70
2023/04/12 01:07:08;;;;;;;1.45;1.35;;;19.10;49.60;;;;;;4956648;28;20193;-70
2023/04/12 01:09:40;;;;;;;2.00;1.60;;;19.10;49.60;;;;;;4952561;29;20230;-70
2023/04/12 01:13:03;;;;;;;2.15;1.50;;;19.10;49.60;;;;;;4963871;28;20241;-70
2023/04/12 01:15:31;;;;;;;1.27;1.20;;;19.00;49.50;;;;;;4959373;28;20688;-70
2023/04/12 01:18:22;;;;;;;1.75;1.58;;;19.00;49.50;;;;;;4955717;28;20243;-70
2023/04/12 01:21:06;;;;;;;2.20;1.70;;;19.00;49.50;;;;;;4971435;28;20264;-70
2023/04/12 01:24:01;;;;;;;1.40;1.30;;;19.00;49.60;;;;;;4971954;28;20252;-70
2023/04/12 01:26:47;;;;;;;1.40;1.30;;;19.10;49.60;;;;;;4960949;28;20286;-70
2023/04/12 01:29:15;;;;;;;1.55;1.45;;;19.00;49.50;;;;;;4957002;28;20224;-70
2023/04/12 01:31:58;;;;;;;1.90;1.52;;;19.10;49.60;;;;;;4959180;28;20214;-70
2023/04/12 01:34:28;;;;;;;1.73;1.55;;;19.10;49.60;;;;;;4975580;28;20200;-70
2023/04/12 01:36:57;;;;;;;1.67;1.30;;;19.10;49.60;;;;;;4975844;28;20289;-70
2023/04/12 01:39:22;;;;;;;1.50;1.40;;;19.00;49.60;;;;;;4976635;28;20189;-70
2023/04/12 01:41:49;;;;;;;1.60;1.50;;;19.00;49.60;;;;;;4959339;28;20222;-70
2023/04/12 01:44:17;;;;;;;1.45;1.13;;;19.10;49.70;;;;;;4959249;28;20591;-70
2023/04/12 01:46:47;;;;;;;1.20;1.10;;;19.00;49.60;;;;;;4975407;28;20665;-70
2023/04/12 01:49:16;;;;;;;1.50;1.38;;;19.00;49.70;;;;;;4976558;28;20272;-70
2023/04/12 01:52:00;;;;;;;1.88;1.55;;;19.00;49.70;;;;;;4975103;28;20329;-70
2023/04/12 01:54:41;;;;;;;1.73;1.60;;;19.10;49.70;;;;;;4975365;28;20194;-70
2023/04/12 01:57:08;;;;;;;1.50;1.40;;;19.00;49.70;;;;;;4976684;28;20201;-70
2023/04/12 01:59:40;;;;;;;1.30;1.20;;;19.00;49.70;;;;;;4975423;28;20198;-70
2023/04/12 02:02:08;;;;;;;1.45;1.30;;;19.00;49.70;;;;;;4976117;28;20213;-70
2023/04/12 02:04:36;;;;;;;1.40;1.30;;;19.00;49.70;;;;;;4974971;28;20324;-70
2023/04/12 02:07:03;;;;;;;1.13;1.02;;;19.10;49.80;;;;;;4975165;28;20288;-70
2023/04/12 02:09:29;;;;;;;1.40;1.30;;;19.00;49.70;;;;;;4974993;28;20213;-70
2023/04/12 02:11:55;;;;;;;1.35;1.20;;;19.00;49.70;;;;;;4974495;28;20218;-70
2023/04/12 02:14:21;;;;;;;1.58;1.13;;;19.00;49.70;;;;;;4974874;28;20193;-70
2023/04/12 02:16:49;;;;;;;1.23;1.13;;;19.00;49.70;;;;;;4971841;28;20276;-70
2023/04/12 02:19:15;;;;;;;1.23;1.17;;;19.10;49.80;;;;;;4975078;28;20186;-70
2023/04/12 02:21:44;;;;;;;1.30;1.20;;;19.00;49.70;;;;;;4958188;28;20701;-70
2023/04/12 02:24:11;;;;;;;0.88;0.88;;;19.10;49.90;;;;;;4975023;28;20194;-70
2023/04/12 02:26:37;;;;;;;1.17;1.10;;;19.00;49.80;;;;;;4974862;28;20205;-70
2023/04/12 02:29:06;;;;;;;1.15;1.05;;;19.00;49.80;;;;;;4974471;28;20226;-70
2023/04/12 02:31:35;;;;;;;1.20;1.10;;;19.10;49.90;;;;;;4958658;28;20217;-70
2023/04/12 02:34:01;;;;;;;1.13;1.02;;;19.00;49.80;;;;;;4974294;28;20220;-70
2023/04/12 02:36:28;;;;;;;1.10;1.00;;;19.00;49.80;;;;;;4958561;28;20194;-70
2023/04/12 02:38:55;;;;;;;1.77;1.15;;;19.00;49.80;;;;;;4974379;28;20681;-70
2023/04/12 02:41:22;;;;;;;1.10;1.00;;;19.00;49.80;;;;;;4957537;28;20224;-70
2023/04/12 02:43:49;;;;;;;1.35;1.25;;;19.00;49.80;;;;;;4958346;28;20194;-70
2023/04/12 02:46:24;;;;;;;1.33;1.02;;;19.00;49.80;;;;;;4958532;28;20563;-70
2023/04/12 02:48:55;;;;;;;1.00;0.90;;;19.00;49.80;;;;;;4974486;28;20599;-70
2023/04/12 02:51:28;;;;;;;1.10;1.00;;;19.00;49.80;;;;;;4974782;28;20221;-70
2023/04/12 02:53:54;;;;;;;1.20;1.10;;;19.00;50.40;;;;;;4975256;28;20193;-70
2023/04/12 02:56:23;;;;;;;1.15;1.05;;;19.00;49.80;;;;;;4974053;28;20336;-70
2023/04/12 02:58:55;;;;;;;1.20;1.10;;;19.00;49.80;;;;;;4974182;28;20616;-70
2023/04/12 03:01:45;;;;;;;0.93;0.93;;;19.00;49.90;;;;;;4973530;28;20240;-70
2023/04/12 03:04:28;;;;;;;1.10;0.90;;;19.00;49.90;;;;;;4973764;28;20207;-70
2023/04/12 03:06:55;;;;;;;1.10;1.05;;;19.00;49.90;;;;;;4958016;28;20212;-70
2023/04/12 03:09:31;;;;;;;1.02;0.95;;;19.00;49.90;;;;;;4973859;28;20224;-70
2023/04/12 03:11:58;;;;;;;1.15;1.05;;;19.00;49.90;;;;;;4973414;28;20210;-70
2023/04/12 03:14:24;;;;;;;0.80;0.80;;;19.00;49.90;;;;;;4973660;28;20606;-70
2023/04/12 03:16:52;;;;;;;1.20;1.10;;;19.00;49.90;;;;;;4973891;28;20200;-70
2023/04/12 03:19:18;;;;;;;0.95;0.95;;;19.00;49.90;;;;;;4957560;28;20205;-70
2023/04/12 03:21:50;;;;;;;1.17;0.90;;;19.00;49.90;;;;;;4972908;28;20218;-70
2023/04/12 03:24:16;;;;;;;0.85;0.85;;;19.00;49.90;;;;;;4973782;28;20200;-70
2023/04/12 03:26:42;;;;;;;0.85;0.85;;;19.00;49.90;;;;;;4973474;28;20574;-70
2023/04/12 03:29:17;;;;;;;1.30;1.20;;;19.00;50.00;;;;;;4973480;28;20220;-70
2023/04/12 03:31:46;;;;;;;0.82;0.82;;;19.00;50.00;;;;;;4973314;28;20217;-70
2023/04/12 03:34:12;;;;;;;0.98;0.98;;;19.00;50.00;;;;;;4957422;28;20194;-70
2023/04/12 03:36:43;;;;;;;1.08;0.90;;;19.00;50.00;;;;;;4958224;28;20177;-70
2023/04/12 03:39:17;;;;;;;1.38;1.10;;;19.00;50.00;;;;;;4967290;28;20181;-70
2023/04/12 03:41:46;;;;;;;0.80;0.80;;;19.00;50.00;;;;;;4973308;28;20229;-70
2023/04/12 03:44:13;;;;;;;1.20;1.10;;;19.00;50.00;;;;;;4973459;28;20290;-70
2023/04/12 03:46:39;;;;;;;0.88;0.80;;;19.00;50.00;;;;;;4973024;28;20189;-70
2023/04/12 03:49:09;;;;;;;0.90;0.90;;;19.00;50.00;;;;;;4973005;28;20313;-70
2023/04/12 03:51:35;;;;;;;1.20;0.75;;;19.00;50.00;;;;;;4972692;28;20228;-70
2023/04/12 03:54:03;;;;;;;0.80;0.80;;;19.00;50.00;;;;;;4972354;28;20216;-70
2023/04/12 03:56:37;;;;;;;0.80;0.80;;;19.00;50.00;;;;;;4973075;28;20209;-70
2023/04/12 03:59:08;;;;;;;0.90;0.90;;;19.00;50.00;;;;;;4973021;28;20286;-70
2023/04/12 04:01:35;;;;;;;1.15;1.00;;;19.00;50.10;;;;;;4956661;28;20228;-70
2023/04/12 04:04:02;;;;;;;0.80;0.80;;;19.00;50.10;;;;;;4972712;28;20598;-70
2023/04/12 04:06:30;;;;;;;1.00;1.00;;;19.00;50.10;;;;;;4957126;28;20204;-70
2023/04/12 04:08:56;;;;;;;0.90;0.90;;;19.00;50.10;;;;;;4972588;28;20221;-70
2023/04/12 04:11:23;;;;;;;0.90;0.90;;;19.00;50.10;;;;;;4956601;28;20236;-70
2023/04/12 04:13:53;;;;;;;1.10;1.00;;;19.00;50.10;;;;;;4953907;28;20273;-70
2023/04/12 04:16:19;;;;;;;1.00;0.98;;;19.00;50.10;;;;;;4972654;28;20200;-70
2023/04/12 04:18:45;;;;;;;0.70;0.70;;;19.00;50.10;;;;;;4972830;28;20583;-70
2023/04/12 04:21:14;;;;;;;0.98;0.90;;;19.00;50.10;;;;;;4972239;28;20646;-70
2023/04/12 04:23:43;;;;;;;0.85;0.85;;;19.00;50.10;;;;;;4972782;28;20193;-70
2023/04/12 04:26:11;;;;;;;0.88;0.88;;;18.90;50.00;;;;;;4956702;28;20197;-70
2023/04/12 04:29:04;;;;;;;0.80;0.80;;;19.00;50.10;;;;;;4972289;28;20260;-70
2023/04/12 04:31:35;;;;;;;0.80;0.80;;;18.90;50.10;;;;;;4972052;28;20267;-70
2023/04/12 04:34:04;;;;;;;0.80;0.80;;;19.00;50.10;;;;;;4972259;28;20288;-70
2023/04/12 04:36:34;;;;;;;0.90;0.90;;;19.00;50.10;;;;;;4972751;28;20189;-70
2023/04/12 04:39:02;;;;;;;0.80;0.80;;;19.00;50.10;;;;;;4973631;28;20260;-70
2023/04/12 04:41:40;;;;;;;0.60;0.60;;;19.00;50.10;;;;;;4972077;28;20271;-70
2023/04/12 04:44:09;;;;;;;0.90;0.90;;;19.00;50.10;;;;;;4972400;28;20209;-70
2023/04/12 04:46:38;;;;;;;0.80;0.80;;;18.90;50.10;;;;;;4988319;28;20683;-70
2023/04/12 04:49:05;;;;;;;0.80;0.80;;;18.90;50.10;;;;;;4972183;28;20237;-70
2023/04/12 04:51:31;;;;;;;0.90;0.90;;;19.00;50.20;;;;;;4971793;28;20221;-70
2023/04/12 04:54:01;;;;;;;0.70;0.70;;;19.00;50.20;;;;;;4972004;28;20288;-70
2023/04/12 04:56:27;;;;;;;0.80;0.80;;;18.90;50.10;;;;;;4971984;28;20241;-70
2023/04/12 04:58:53;;;;;;;0.70;0.70;;;19.00;50.30;;;;;;4972173;28;20197;-70
2023/04/12 05:01:24;;;;;;;0.70;0.70;;;19.00;50.20;;;;;;4971712;28;20221;-70
2023/04/12 05:03:50;;;;;;;0.80;0.80;;;18.90;50.20;;;;;;4971984;28;20202;-69
2023/04/12 05:06:19;;;;;;;0.60;0.60;;;18.90;50.10;;;;;;4960162;28;20217;-70
2023/04/12 05:08:45;;;;;;;1.00;1.00;;;18.90;50.10;;;;;;4975168;28;20229;-70
2023/04/12 05:11:21;;;;;;;0.88;0.88;;;18.90;50.10;;;;;;4975977;28;20217;-70
2023/04/12 05:13:48;;;;;;;0.90;0.90;;;19.00;50.20;;;;;;4975882;28;20181;-70
2023/04/12 05:16:14;;;;;;;0.52;0.52;;;19.00;50.20;;;;;;4975878;28;20687;-70
2023/04/12 05:18:40;;;;;;;0.80;0.80;;;18.90;50.20;;;;;;4975434;28;20248;-70
2023/04/12 05:21:06;;;;;;;0.70;0.70;;;18.90;50.20;;;;;;4975868;28;20299;-70
2023/04/12 05:23:36;;;;;;;0.80;0.70;;;18.90;50.20;;;;;;4975941;28;20280;-70
2023/04/12 05:26:03;;;;;;;0.90;0.90;;;18.90;50.20;;;;;;4976132;28;20197;-70
2023/04/12 05:28:30;;;;;;;0.90;0.90;;;19.00;50.30;;;;;;4975847;28;20776;-70
2023/04/12 05:30:57;;;;;;;0.70;0.70;;;18.90;50.20;;;;;;4959507;28;20221;-70
2023/04/12 05:33:33;;;;;;;0.50;0.50;;;18.90;50.20;;;;;;4975749;28;20220;-70
2023/04/12 05:35:59;;;;;;;0.63;0.63;;;18.90;50.30;;;;;;4975570;28;20284;-70
2023/04/12 05:38:27;;;;;;;0.60;0.60;;;18.90;50.30;;;;;;4976103;28;20288;-70
2023/04/12 05:40:56;;;;;;;0.75;0.75;;;19.00;50.40;;;;;;4975648;28;20233;-70
2023/04/12 05:43:22;;;;;;;0.70;0.70;;;18.90;50.30;;;;;;4975421;28;20284;-70
2023/04/12 05:45:50;;;;;;;0.70;0.70;;;19.00;50.40;;;;;;4975453;28;20194;-70
2023/04/12 05:48:18;;;;;;;0.80;0.80;;;18.90;50.40;;;;;;4976467;28;20209;-70
2023/04/12 05:50:53;;;;;;;0.50;0.50;;;19.00;50.40;;;;;;4975276;28;20269;-70
2023/04/12 05:53:21;;;;;;;0.60;0.60;;;19.00;50.40;;;;;;4975086;28;20200;-70
2023/04/12 05:55:47;;;;;;;0.77;0.77;;;19.00;50.40;;;;;;4976410;28;20186;-70
2023/04/12 05:58:15;;;;;;;0.70;0.70;;;19.00;51.00;;;;;;4959533;28;20197;-70
2023/04/12 06:00:41;;;;;;;0.70;0.60;;;19.00;50.40;;;;;;4975084;28;20602;-70
2023/04/12 06:03:10;;;;;;;0.55;0.55;;;19.00;50.40;;;;;;4975996;28;20244;-70
2023/04/12 06:05:37;;;;;;;0.63;0.63;;;19.00;50.50;;;;;;4975026;28;20208;-70
2023/04/12 06:08:04;;;;;;;0.70;0.70;;;19.00;50.50;;;;;;4975167;28;20186;-70
2023/04/12 06:10:30;;;;;;;0.80;0.80;;;19.00;50.50;;;;;;4974834;28;20239;-70
2023/04/12 06:12:56;;;;;;;0.60;0.60;;;18.90;50.40;;;;;;4974730;28;20692;-70
2023/04/12 06:15:22;;;;;;;0.70;0.70;;;19.00;50.50;;;;;;4975039;28;20186;-70
2023/04/12 06:17:54;;;;;;;0.60;0.60;;;18.90;50.40;;;;;;4973868;28;20185;-70
2023/04/12 06:20:20;;;;;;;0.80;0.80;;;18.90;50.40;;;;;;4974758;28;20670;-70
2023/04/12 06:22:47;;;;;;;0.60;0.60;;;18.90;50.40;;;;;;4958558;28;20194;-70
2023/04/12 06:25:16;;;;;;;0.60;0.60;;;19.00;50.50;;;;;;4974785;28;20189;-70
2023/04/12 06:27:44;;;;;;;0.60;0.60;;;18.90;50.40;;;;;;4974713;28;20211;-71
2023/04/12 06:30:12;;;;;;;0.50;0.50;;;19.00;50.50;;;;;;4958538;28;20240;-70
2023/04/12 06:32:38;;;;;;;0.75;0.50;;;19.00;50.50;;;;;;4974378;28;20186;-70
2023/04/12 06:35:05;;;;;;;0.77;0.73;;;18.90;50.40;;;;;;4974399;28;20201;-70
2023/04/12 06:37:32;;;;;;;0.60;0.60;;;18.90;51.00;;;;;;4974757;28;20178;-70
2023/04/12 06:39:57;;;;;;;0.75;0.75;;;19.00;50.50;;;;;;4975643;28;20208;-70
2023/04/12 06:42:23;;;;;;;0.55;0.55;;;18.90;50.40;;;;;;4957875;28;20217;-70
2023/04/12 06:44:49;;;;;;;0.60;0.60;;;18.90;50.40;;;;;;4974265;28;20205;-70
2023/04/12 06:47:15;;;;;;;0.70;0.70;;;19.00;50.50;;;;;;4974409;28;20239;-70
2023/04/12 06:49:41;;;;;;;0.90;0.90;;;19.00;50.50;;;;;;4974310;28;20225;-70
2023/04/12 06:52:06;;;;;;;0.60;0.60;;;19.00;50.50;;;;;;4973751;28;20229;-70
2023/04/12 06:54:36;;;;;;;0.90;0.90;;;18.90;50.40;;;;;;4958129;28;20221;-70
2023/04/12 06:57:02;;;;;;;0.77;0.77;;;19.00;50.50;;;;;;4974437;28;20229;-70
2023/04/12 06:59:28;;;;;;;0.80;0.80;;;19.00;50.50;;;;;;4974150;28;20240;-70
2023/04/12 07:01:53;;;;;;;0.60;0.60;;;18.90;50.40;;;;;;4973799;28;20220;-70
2023/04/12 07:04:19;;;;;;;1.00;0.80;;;18.90;50.40;;;;;;4958318;28;20197;-70
2023/04/12 07:06:45;;;;;;;0.60;0.60;;;19.00;50.50;;;;;;4957956;28;20185;-70
2023/04/12 07:09:11;;;;;;;0.68;0.68;;;19.00;50.50;;;;;;4974792;28;20217;-70
2023/04/12 07:11:37;;;;;;;0.80;0.80;;;19.00;50.50;;;;;;4973627;28;20217;-70
2023/04/12 07:14:03;;;;;;;0.60;0.60;;;18.90;50.40;;;;;;4975168;28;20220;-70
2023/04/12 07:16:32;;;;;;;0.80;0.80;;;18.90;50.40;;;;;;4974026;28;20190;-70
2023/04/12 07:18:59;;;;;;;0.43;0.43;;;19.00;50.50;;;;;;4957955;28;20205;-70
2023/04/12 07:21:26;;;;;;;0.80;0.80;;;18.90;50.40;;;;;;4974699;28;20217;-70
2023/04/12 07:23:52;;;;;;;0.80;0.80;;;18.90;50.40;;;;;;4973752;28;20657;-70
2023/04/12 07:26:18;;;;;;;0.75;0.73;;;18.90;50.40;;;;;;4973714;28;20190;-70
2023/04/12 07:28:44;;;;;;;0.63;0.60;;;18.90;50.40;;;;;;4973591;28;20210;-70
2023/04/12 07:31:09;;;;;;;0.50;0.50;;;18.90;50.40;;;;;;4973308;28;20220;-70
2023/04/12 07:33:36;;;;;;;0.70;0.70;;;18.90;50.40;;;;;;4973472;28;20198;-70
2023/04/12 07:36:03;;;;;;;0.70;0.70;;;19.00;50.50;;;;;;4974684;28;20217;-70
2023/04/12 07:38:29;;;;;;;0.60;0.60;;;19.00;50.50;;;;;;4974515;28;20189;-70
2023/04/12 07:40:55;;;;;;;0.50;0.50;;;18.90;50.40;;;;;;4973077;28;20213;-70
2023/04/12 07:43:22;;;;;;;0.57;0.57;;;18.90;50.40;;;;;;4973170;28;20193;-70
2023/04/12 07:45:48;;;;;;;0.60;0.60;;;18.90;50.40;;;;;;4973445;28;20302;-70
2023/04/12 07:48:14;;;;;;;0.80;0.80;;;19.00;50.50;;;;;;4974328;28;20225;-70
2023/04/12 07:50:40;;;;;;;0.80;0.80;;;18.90;50.40;;;;;;4974141;28;20232;-70
2023/04/12 07:53:21;;;;;;;1.00;1.00;;;18.90;50.40;;;;;;4974157;28;20194;-70
2023/04/12 07:55:49;;;;;;;1.40;1.30;;;18.90;50.40;;;;;;4973291;28;20198;-70
2023/04/12 07:58:16;;;;;;;1.63;1.52;;;18.90;50.40;;;;;;4972879;28;20201;-70
2023/04/12 08:00:45;;;;;;;2.10;1.90;;;18.90;50.40;;;;;;4956704;28;20205;-71
2023/04/12 08:03:13;;;;;;;1.90;1.65;;;18.90;50.40;;;;;;4972980;28;20210;-70
2023/04/12 08:05:39;;;;;;;1.80;1.70;;;19.00;50.50;;;;;;4957068;28;20216;-70
2023/04/12 08:08:06;;;;;;;2.50;2.25;;;19.00;50.50;;;;;;4972909;28;20186;-70
2023/04/12 08:10:33;;;;;;;2.10;1.90;;;19.00;51.10;;;;;;4973819;28;20620;-70
2023/04/12 08:12:59;;;;;;;1.92;1.83;;;19.00;50.50;;;;;;4956657;28;20197;-70
2023/04/12 08:15:24;;;;;;;2.17;1.98;;;19.00;50.50;;;;;;4972669;28;20189;-70
2023/04/12 08:17:50;;;;;;;2.17;1.98;;;19.00;50.50;;;;;;4972926;28;20192;-70
2023/04/12 08:20:16;;;;;;;2.03;1.77;;;19.00;50.50;;;;;;4972567;28;20205;-70
2023/04/12 08:22:43;;;;;;;1.50;1.40;;;19.00;50.50;;;;;;4972617;28;20205;-70
2023/04/12 08:25:09;;;;;;;1.80;1.70;;;19.00;50.50;;;;;;4940609;28;20193;-70
2023/04/12 08:27:38;;;;;;;1.98;1.88;;;19.00;50.50;;;;;;4973617;28;20201;-70
2023/04/12 08:30:05;;;;;;;1.90;1.80;;;19.00;50.50;;;;;;4972544;28;20222;-70
2023/04/12 08:32:31;;;;;;;1.95;1.67;;;19.00;50.50;;;;;;4972321;28;20308;-70
2023/04/12 08:34:56;;;;;;;1.52;1.42;;;19.00;50.50;;;;;;4972437;28;20284;-70
2023/04/12 08:37:22;;;;;;;1.88;1.75;;;19.10;50.60;;;;;;4973608;28;20190;-70
2023/04/12 08:39:48;;;;;;;1.65;1.52;;;19.10;50.60;;;;;;4973245;28;20205;-70
2023/04/12 08:42:17;;;;;;;1.75;1.65;;;19.10;50.60;;;;;;4955930;28;20229;-71
2023/04/12 08:44:43;;;;;;;1.58;1.48;;;19.10;50.60;;;;;;4972332;28;20197;-71
2023/04/12 08:47:10;;;;;;;1.70;1.60;;;19.10;50.60;;;;;;4973714;28;20198;-70
2023/04/12 08:49:36;;;;;;;1.75;1.65;;;19.10;51.20;;;;;;4972241;28;20240;-70
2023/04/12 08:52:07;;;;;;;1.70;1.60;;;19.10;50.60;;;;;;4973205;28;20221;-70
2023/04/12 08:54:34;;;;;;;1.50;1.40;;;19.10;50.60;;;;;;4972293;28;20193;-70
2023/04/12 08:57:05;;;;;;;1.63;1.52;;;19.10;50.60;;;;;;4972300;28;20200;-70
2023/04/12 08:59:35;;;;;;;1.60;1.50;;;19.10;50.60;;;;;;4972069;28;20223;-70
2023/04/12 09:02:01;;;;;;;1.52;1.42;;;19.10;50.60;;;;;;4972134;28;20221;-70
2023/04/12 09:04:27;;;;;;;1.85;1.40;;;19.10;50.60;;;;;;4972002;28;20206;-70
2023/04/12 09:06:53;;;;;;;1.45;1.35;;;19.10;50.60;;;;;;4973256;28;20309;-70
2023/04/12 09:09:19;;;;;;;1.45;1.35;;;19.10;50.60;;;;;;4971886;28;20696;-70
2023/04/12 09:11:44;;;;;;;1.70;1.60;;;19.20;50.60;;;;;;4971729;28;20301;-70
2023/04/12 09:14:23;;;;;;;1.60;1.50;;;19.10;50.60;;;;;;4972295;28;20197;-70
2023/04/12 09:16:49;;;;;;;1.10;1.10;;;19.10;50.60;;;;;;4972172;28;20208;-70
2023/04/12 09:19:15;;;;;;;1.55;1.45;;;19.10;50.60;;;;;;4971889;28;20228;-71
2023/04/12 09:21:55;;;;;;;1.45;1.35;;;19.10;50.60;;;;;;4971734;28;20292;-70
2023/04/12 09:24:24;;;;;;;1.48;1.38;;;19.10;50.60;;;;;;4972881;28;20204;-70
2023/04/12 09:27:05;;;;;;;1.40;1.30;;;19.10;50.60;;;;;;4972105;28;20244;-70
2023/04/12 09:29:32;;;;;;;1.38;1.27;;;19.10;50.60;;;;;;4971720;28;20784;-70
2023/04/12 09:32:07;;;;;;;1.00;1.00;;;19.20;50.70;;;;;;4972762;28;20212;-70
2023/04/12 09:34:35;;;;;;;1.33;1.23;;;19.20;50.60;;;;;;4973170;28;20269;-70
2023/04/12 09:37:15;;;;;;;1.65;1.55;;;19.20;50.70;;;;;;4971182;28;20196;-70
2023/04/12 09:39:41;;;;;;;1.42;1.33;;;19.20;50.60;;;;;;4972647;28;20200;-70
2023/04/12 09:42:11;;;;;;;1.58;1.48;;;19.20;50.60;;;;;;4972696;28;20225;-70
2023/04/12 09:44:38;;;;;;;1.38;1.27;;;19.20;50.70;;;;;;4971592;28;20201;-70
2023/04/12 09:47:04;;;;;;;1.20;1.20;;;19.20;50.60;;;;;;4971563;28;20194;-70
2023/04/12 09:49:42;;;;;;;1.17;1.17;;;19.20;50.70;;;;;;4971275;28;20708;-70
2023/04/12 09:52:11;;;;;;;1.48;1.38;;;19.20;50.60;;;;;;4975795;28;20224;-70
2023/04/12 09:54:42;;;;;;;1.10;1.00;;;19.20;50.70;;;;;;4975618;28;20594;-70
2023/04/12 09:57:08;;;;;;;1.10;1.00;;;19.20;50.60;;;;;;4975340;28;20676;-70
2023/04/12 09:59:38;;;;;;;1.20;1.10;;;19.20;50.70;;;;;;4975254;28;20573;-70
2023/04/12 10:02:18;;;;;;;1.20;1.10;;;19.20;50.80;;;;;;4976205;28;20209;-70
2023/04/12 10:04:47;;;;;;;1.00;1.00;;;19.20;50.70;;;;;;4975253;28;20196;-70
2023/04/12 10:07:13;;;;;;;1.20;1.10;;;19.20;50.70;;;;;;4975023;28;20276;-71
2023/04/12 10:09:40;;;;;;;1.25;1.17;;;19.20;50.70;;;;;;4974988;28;20591;-70
2023/04/12 10:12:08;;;;;;;1.23;1.17;;;19.20;50.80;;;;;;4974961;28;20637;-70
2023/04/12 10:14:34;;;;;;;1.23;1.13;;;19.20;50.90;;;;;;4958810;28;20193;-70
2023/04/12 10:17:03;;;;;;;1.00;1.00;;;19.20;51.50;;;;;;4974849;28;20189;-70
2023/04/12 10:19:32;;;;;;;1.08;1.08;;;19.20;50.80;;;;;;4975040;28;20201;-70
2023/04/12 10:22:00;;;;;;;1.30;1.20;;;19.20;50.90;;;;;;4974701;28;20296;-70
2023/04/12 10:24:27;;;;;;;1.13;1.10;;;19.20;50.90;;;;;;4974956;28;20272;-70
2023/04/12 10:26:57;;;;;;;1.40;1.30;;;19.20;51.00;;;;;;4974847;28;20273;-70
2023/04/12 10:29:33;;;;;;;1.20;1.08;;;19.20;51.00;;;;;;4975819;28;20213;-70
2023/04/12 10:32:20;;;;;;;1.23;1.13;;;19.20;51.00;;;;;;4974348;28;20703;-70
2023/04/12 10:34:58;;;;;;;1.05;1.00;;;19.20;51.00;;;;;;4976091;28;20194;-70
2023/04/12 10:38:03;;;;;;;1.00;1.00;;;19.20;51.00;;;;;;4974629;28;20189;-70
2023/04/12 10:40:31;;;;;;;1.13;1.05;;;19.20;51.00;;;;;;4935761;28;20287;-70
2023/04/12 10:43:21;;;;;;;1.40;1.10;;;19.20;51.00;;;;;;4970859;28;20648;-70
2023/04/12 10:45:48;;;;;;;1.08;1.08;;;19.20;51.00;;;;;;4958288;28;20240;-70
2023/04/12 10:48:35;;;;;;;1.20;1.10;;;19.20;51.00;;;;;;4974483;28;20197;-70
2023/04/12 10:51:27;;;;;;;1.35;1.25;;;19.20;51.10;;;;;;4974432;28;20228;-70
2023/04/12 10:54:07;;;;;;;1.10;1.10;;;19.20;51.10;;;;;;4974513;28;20197;-70
2023/04/12 10:56:41;;;;;;;1.58;1.35;;;19.20;51.10;;;;;;4974485;28;20617;-70
2023/04/12 10:59:13;;;;;;;0.90;0.90;;;19.20;51.10;;;;;;4958736;28;20272;-70
2023/04/12 11:02:06;;;;;;;1.30;1.20;;;19.20;51.10;;;;;;4974065;28;20213;-70
2023/04/12 11:04:32;;;;;;;1.30;1.20;;;19.20;51.20;;;;;;4973970;28;20193;-70
2023/04/12 11:07:10;;;;;;;1.20;1.00;;;19.20;51.20;;;;;;4974123;28;20229;-70
2023/04/12 11:10:00;;;;;;;1.02;1.02;;;19.20;51.20;;;;;;4974993;28;20237;-70
2023/04/12 11:12:34;;;;;;;1.10;1.00;;;19.20;51.20;;;;;;4973866;28;20304;-70
2023/04/12 11:15:02;;;;;;;1.25;1.15;;;19.20;51.20;;;;;;4974960;28;20201;-70
2023/04/12 11:17:54;;;;;;;0.90;0.90;;;19.20;51.20;;;;;;4973880;28;20193;-70
2023/04/12 11:20:19;;;;;;;0.98;0.98;;;19.20;51.20;;;;;;4974878;28;20193;-70
2023/04/12 11:22:46;;;;;;;1.17;1.17;;;19.20;51.30;;;;;;4973681;28;20252;-70
2023/04/12 11:25:16;;;;;;;1.20;1.10;;;19.20;51.20;;;;;;4957573;28;20256;-70
2023/04/12 11:27:50;;;;;;;1.10;1.00;;;19.20;51.20;;;;;;4973569;28;20208;-70
2023/04/12 11:30:16;;;;;;;1.00;0.90;;;19.20;51.30;;;;;;4974767;28;20284;-70
2023/04/12 11:32:44;;;;;;;1.23;1.13;;;19.20;51.30;;;;;;4973443;28;20193;-70
2023/04/12 11:35:10;;;;;;;1.20;1.10;;;19.20;51.30;;;;;;4974610;28;20224;-70
2023/04/12 11:37:37;;;;;;;1.25;1.10;;;19.20;51.30;;;;;;4957725;28;20197;-70
2023/04/12 11:40:04;;;;;;;1.23;1.13;;;19.30;51.40;;;;;;4973467;28;20193;-70
2023/04/12 11:42:31;;;;;;;1.30;1.20;;;19.20;51.30;;;;;;4973126;28;20217;-70
2023/04/12 11:44:58;;;;;;;0.73;0.73;;;19.30;51.40;;;;;;4973457;28;20206;-70
2023/04/12 11:47:25;;;;;;;1.25;1.15;;;19.30;51.40;;;;;;4973527;28;20574;-70
2023/04/12 11:49:56;;;;;;;0.95;0.95;;;19.30;51.40;;;;;;4973208;28;20214;-70
2023/04/12 11:52:32;;;;;;;1.27;1.17;;;19.30;51.30;;;;;;4965618;28;20236;-70
2023/04/12 11:55:05;;;;;;;1.10;1.00;;;19.30;51.40;;;;;;4973173;28;20197;-70
2023/04/12 11:57:32;;;;;;;0.95;0.90;;;19.30;51.30;;;;;;4957022;28;20212;-70
2023/04/12 11:59:59;;;;;;;1.20;1.10;;;19.30;51.40;;;;;;4972916;28;20669;-70
2023/04/12 12:02:25;;;;;;;1.10;1.10;;;19.30;51.40;;;;;;4972730;28;20209;-70
2023/04/12 12:04:54;;;;;;;0.98;0.93;;;19.30;51.40;;;;;;4973023;28;20201;-70
2023/04/12 12:07:21;;;;;;;1.17;1.17;;;19.30;51.40;;;;;;4972897;28;20276;-70
2023/04/12 12:09:49;;;;;;;1.17;1.08;;;19.30;51.50;;;;;;4972964;28;20233;-70
2023/04/12 12:12:15;;;;;;;0.80;0.80;;;19.30;51.60;;;;;;4972590;28;20700;-70
2023/04/12 12:14:44;;;;;;;0.80;0.80;;;19.30;51.50;;;;;;4973247;28;20197;-70
2023/04/12 12:17:15;;;;;;;1.00;1.00;;;19.30;52.10;;;;;;4973928;28;20256;-70
2023/04/12 12:19:45;;;;;;;0.88;0.88;;;19.30;51.50;;;;;;4972827;28;20201;-70
2023/04/12 12:22:21;;;;;;;1.02;1.02;;;19.30;51.60;;;;;;4956358;28;20252;-70
2023/04/12 12:24:57;;;;;;;1.02;0.93;;;19.30;51.60;;;;;;4972590;28;20201;-70
2023/04/12 12:27:34;;;;;;;1.05;1.05;;;19.30;51.60;;;;;;4973743;28;20185;-70
2023/04/12 12:30:03;;;;;;;0.98;0.93;;;19.30;51.60;;;;;;4970382;28;20209;-70
2023/04/12 12:32:34;;;;;;;1.05;1.02;;;19.30;51.60;;;;;;4973439;28;20202;-70
2023/04/12 12:35:00;;;;;;;1.10;1.00;;;19.30;51.60;;;;;;4988648;28;20261;-70
2023/04/12 12:37:27;;;;;;;1.30;1.20;;;19.30;51.70;;;;;;4972231;28;20217;-70
2023/04/12 12:40:12;;;;;;;1.08;1.00;;;19.30;51.70;;;;;;4972357;28;20264;-70
2023/04/12 12:42:44;;;;;;;0.98;0.98;;;19.30;51.60;;;;;;4972095;28;20204;-70
2023/04/12 12:45:12;;;;;;;0.70;0.70;;;19.30;51.60;;;;;;4972088;28;20197;-70
2023/04/12 12:47:57;;;;;;;0.77;0.77;;;19.30;51.60;;;;;;4972261;28;20189;-70
2023/04/12 12:50:26;;;;;;;0.85;0.85;;;19.30;51.60;;;;;;4966056;28;20221;-70
2023/04/12 12:52:53;;;;;;;0.80;0.80;;;19.30;51.60;;;;;;4972171;28;20264;-70
2023/04/12 12:55:21;;;;;;;0.90;0.90;;;19.30;51.60;;;;;;4973343;28;20192;-70
2023/04/12 12:57:50;;;;;;;1.00;1.00;;;19.30;51.70;;;;;;4972092;28;20193;-70
2023/04/12 13:00:18;;;;;;;1.13;1.02;;;19.30;51.60;;;;;;4972111;28;20236;-70